sensor_id;sensor_type;location;lat;lon;timestamp;P1;durP1;ratioP1;P2;durP2;ratioP2
3083;SDS011;1552;51.952;7.618;2024-02-16T00:00:52;2.80;;;2.10;;
3083;SDS011;1552;51.952;7.618;2024-02-16T00:03:19;3.80;;;1.67;;
3083;SDS011;1552;51.952;7.618;2024-02-16T00:05:45;4.17;;;1.77;;
3083;SDS011;1552;51.952;7.618;2024-02-16T00:08:12;4.23;;;1.90;;
3083;SDS011;1552;51.952;7.618;2024-02-16T00:10:39;3.40;;;1.77;;
3083;SDS011;1552;51.952;7.618;2024-02-16T00:13:06;4.40;;;2.30;;
3083;SDS011;1552;51.952;7.618;2024-02-16T00:15:33;2.97;;;1.90;;
3083;SDS011;1552;51.952;7.618;2024-02-16T00:17:59;2.90;;;1.60;;
3083;SDS011;1552;51.952;7.618;2024-02-16T00:20:26;6.80;;;2.00;;
3083;SDS011;1552;51.952;7.618;2024-02-16T00:22:53;3.90;;;1.50;;
3083;SDS011;1552;51.952;7.618;2024-02-16T00:25:19;3.67;;;1.70;;
3083;SDS011;1552;51.952;7.618;2024-02-16T00:27:45;5.53;;;1.70;;
3083;SDS011;1552;51.952;7.618;2024-02-16T00:30:13;2.30;;;1.83;;
3083;SDS011;1552;51.952;7.618;2024-02-16T00:32:40;2.43;;;1.80;;
3083;SDS011;1552;51.952;7.618;2024-02-16T00:35:07;4.20;;;1.57;;
3083;SDS011;1552;51.952;7.618;2024-02-16T00:37:33;2.90;;;1.67;;
3083;SDS011;1552;51.952;7.618;2024-02-16T00:39:59;4.23;;;1.90;;
3083;SDS011;1552;51.952;7.618;2024-02-16T00:42:26;2.90;;;1.53;;
3083;SDS011;1552;51.952;7.618;2024-02-16T00:44:53;4.23;;;1.83;;
3083;SDS011;1552;51.952;7.618;2024-02-16T00:47:21;1.97;;;1.70;;
3083;SDS011;1552;51.952;7.618;2024-02-16T00:49:48;4.83;;;1.77;;
3083;SDS011;1552;51.952;7.618;2024-02-16T00:52:14;3.40;;;1.70;;
3083;SDS011;1552;51.952;7.618;2024-02-16T00:54:41;1.90;;;1.60;;
3083;SDS011;1552;51.952;7.618;2024-02-16T00:57:07;3.90;;;2.00;;
3083;SDS011;1552;51.952;7.618;2024-02-16T00:59:33;3.00;;;1.90;;
3083;SDS011;1552;51.952;7.618;2024-02-16T01:01:59;2.67;;;1.70;;
3083;SDS011;1552;51.952;7.618;2024-02-16T01:04:27;3.03;;;1.50;;
3083;SDS011;1552;51.952;7.618;2024-02-16T01:06:54;5.30;;;1.90;;
3083;SDS011;1552;51.952;7.618;2024-02-16T01:09:21;5.73;;;1.73;;
3083;SDS011;1552;51.952;7.618;2024-02-16T01:11:47;3.07;;;1.40;;
3083;SDS011;1552;51.952;7.618;2024-02-16T01:14:14;3.07;;;1.70;;
3083;SDS011;1552;51.952;7.618;2024-02-16T01:16:40;1.83;;;1.50;;
3083;SDS011;1552;51.952;7.618;2024-02-16T01:19:06;2.53;;;1.63;;
3083;SDS011;1552;51.952;7.618;2024-02-16T01:21:36;3.40;;;1.70;;
3083;SDS011;1552;51.952;7.618;2024-02-16T01:24:02;5.37;;;1.80;;
3083;SDS011;1552;51.952;7.618;2024-02-16T01:26:28;4.20;;;1.80;;
3083;SDS011;1552;51.952;7.618;2024-02-16T01:28:54;3.53;;;1.90;;
3083;SDS011;1552;51.952;7.618;2024-02-16T01:31:23;5.13;;;1.63;;
3083;SDS011;1552;51.952;7.618;2024-02-16T01:33:49;3.10;;;1.60;;
3083;SDS011;1552;51.952;7.618;2024-02-16T01:36:15;2.37;;;1.53;;
3083;SDS011;1552;51.952;7.618;2024-02-16T01:38:43;4.17;;;1.50;;
3083;SDS011;1552;51.952;7.618;2024-02-16T01:41:09;2.70;;;1.50;;
3083;SDS011;1552;51.952;7.618;2024-02-16T01:43:36;3.57;;;1.37;;
3083;SDS011;1552;51.952;7.618;2024-02-16T01:46:02;1.97;;;1.50;;
3083;SDS011;1552;51.952;7.618;2024-02-16T01:48:28;2.83;;;1.63;;
3083;SDS011;1552;51.952;7.618;2024-02-16T01:50:55;7.07;;;1.53;;
3083;SDS011;1552;51.952;7.618;2024-02-16T01:53:22;1.63;;;1.20;;
3083;SDS011;1552;51.952;7.618;2024-02-16T01:55:49;4.23;;;2.00;;
3083;SDS011;1552;51.952;7.618;2024-02-16T01:58:16;4.90;;;1.27;;
3083;SDS011;1552;51.952;7.618;2024-02-16T02:00:42;5.17;;;2.20;;
3083;SDS011;1552;51.952;7.618;2024-02-16T02:03:09;2.60;;;1.70;;
3083;SDS011;1552;51.952;7.618;2024-02-16T02:05:43;3.10;;;1.63;;
3083;SDS011;1552;51.952;7.618;2024-02-16T02:08:09;4.37;;;2.30;;
3083;SDS011;1552;51.952;7.618;2024-02-16T02:10:36;4.13;;;1.70;;
3083;SDS011;1552;51.952;7.618;2024-02-16T02:13:03;3.47;;;1.87;;
3083;SDS011;1552;51.952;7.618;2024-02-16T02:15:30;5.03;;;1.87;;
3083;SDS011;1552;51.952;7.618;2024-02-16T02:17:56;5.13;;;2.10;;
3083;SDS011;1552;51.952;7.618;2024-02-16T02:20:23;3.67;;;2.00;;
3083;SDS011;1552;51.952;7.618;2024-02-16T02:22:50;2.67;;;2.07;;
3083;SDS011;1552;51.952;7.618;2024-02-16T02:25:17;6.73;;;1.90;;
3083;SDS011;1552;51.952;7.618;2024-02-16T02:27:43;4.13;;;1.80;;
3083;SDS011;1552;51.952;7.618;2024-02-16T02:30:10;1.80;;;1.60;;
3083;SDS011;1552;51.952;7.618;2024-02-16T02:32:37;4.00;;;2.40;;
3083;SDS011;1552;51.952;7.618;2024-02-16T02:35:03;4.07;;;1.80;;
3083;SDS011;1552;51.952;7.618;2024-02-16T02:37:30;2.90;;;1.80;;
3083;SDS011;1552;51.952;7.618;2024-02-16T02:39:58;4.70;;;2.00;;
3083;SDS011;1552;51.952;7.618;2024-02-16T02:42:24;3.03;;;2.03;;
3083;SDS011;1552;51.952;7.618;2024-02-16T02:44:50;3.27;;;1.70;;
3083;SDS011;1552;51.952;7.618;2024-02-16T02:47:16;3.30;;;1.67;;
3083;SDS011;1552;51.952;7.618;2024-02-16T02:49:43;4.43;;;2.00;;
3083;SDS011;1552;51.952;7.618;2024-02-16T02:52:09;3.13;;;1.83;;
3083;SDS011;1552;51.952;7.618;2024-02-16T02:54:35;5.17;;;2.10;;
3083;SDS011;1552;51.952;7.618;2024-02-16T02:57:03;2.87;;;1.97;;
3083;SDS011;1552;51.952;7.618;2024-02-16T02:59:29;2.40;;;1.90;;
3083;SDS011;1552;51.952;7.618;2024-02-16T03:01:55;5.63;;;2.03;;
3083;SDS011;1552;51.952;7.618;2024-02-16T03:04:22;2.10;;;1.60;;
3083;SDS011;1552;51.952;7.618;2024-02-16T03:06:48;2.13;;;1.40;;
3083;SDS011;1552;51.952;7.618;2024-02-16T03:09:14;1.73;;;1.63;;
3083;SDS011;1552;51.952;7.618;2024-02-16T03:11:42;4.00;;;1.60;;
3083;SDS011;1552;51.952;7.618;2024-02-16T03:14:09;2.90;;;1.50;;
3083;SDS011;1552;51.952;7.618;2024-02-16T03:16:35;3.23;;;1.77;;
3083;SDS011;1552;51.952;7.618;2024-02-16T03:19:02;4.10;;;1.63;;
3083;SDS011;1552;51.952;7.618;2024-02-16T03:21:31;3.13;;;2.00;;
3083;SDS011;1552;51.952;7.618;2024-02-16T03:23:57;8.23;;;1.93;;
3083;SDS011;1552;51.952;7.618;2024-02-16T03:26:23;2.80;;;1.73;;
3083;SDS011;1552;51.952;7.618;2024-02-16T03:28:50;2.47;;;1.83;;
3083;SDS011;1552;51.952;7.618;2024-02-16T03:31:19;4.30;;;2.00;;
3083;SDS011;1552;51.952;7.618;2024-02-16T03:33:45;3.60;;;1.83;;
3083;SDS011;1552;51.952;7.618;2024-02-16T03:36:12;3.47;;;1.47;;
3083;SDS011;1552;51.952;7.618;2024-02-16T03:38:40;2.63;;;2.20;;
3083;SDS011;1552;51.952;7.618;2024-02-16T03:41:06;2.57;;;1.70;;
3083;SDS011;1552;51.952;7.618;2024-02-16T03:43:33;2.90;;;1.77;;
3083;SDS011;1552;51.952;7.618;2024-02-16T03:45:59;4.47;;;2.10;;
3083;SDS011;1552;51.952;7.618;2024-02-16T03:48:27;2.63;;;1.80;;
3083;SDS011;1552;51.952;7.618;2024-02-16T03:50:53;2.57;;;2.10;;
3083;SDS011;1552;51.952;7.618;2024-02-16T03:53:19;7.67;;;1.90;;
3083;SDS011;1552;51.952;7.618;2024-02-16T03:55:45;7.67;;;1.90;;
3083;SDS011;1552;51.952;7.618;2024-02-16T03:58:12;2.93;;;1.80;;
3083;SDS011;1552;51.952;7.618;2024-02-16T04:00:38;2.70;;;1.50;;
3083;SDS011;1552;51.952;7.618;2024-02-16T04:03:04;4.53;;;1.80;;
3083;SDS011;1552;51.952;7.618;2024-02-16T04:05:32;2.40;;;1.50;;
3083;SDS011;1552;51.952;7.618;2024-02-16T04:08:00;2.97;;;1.73;;
3083;SDS011;1552;51.952;7.618;2024-02-16T04:10:27;4.60;;;1.63;;
3083;SDS011;1552;51.952;7.618;2024-02-16T04:12:54;2.80;;;1.60;;
3083;SDS011;1552;51.952;7.618;2024-02-16T04:15:20;2.17;;;1.80;;
3083;SDS011;1552;51.952;7.618;2024-02-16T04:17:47;2.33;;;1.70;;
3083;SDS011;1552;51.952;7.618;2024-02-16T04:20:15;4.07;;;2.30;;
3083;SDS011;1552;51.952;7.618;2024-02-16T04:22:42;4.40;;;2.20;;
3083;SDS011;1552;51.952;7.618;2024-02-16T04:25:09;5.27;;;2.27;;
3083;SDS011;1552;51.952;7.618;2024-02-16T04:27:35;2.50;;;1.83;;
3083;SDS011;1552;51.952;7.618;2024-02-16T04:30:01;4.07;;;2.20;;
3083;SDS011;1552;51.952;7.618;2024-02-16T04:32:28;5.93;;;2.43;;
3083;SDS011;1552;51.952;7.618;2024-02-16T04:34:54;3.67;;;2.00;;
3083;SDS011;1552;51.952;7.618;2024-02-16T04:37:21;3.60;;;2.00;;
3083;SDS011;1552;51.952;7.618;2024-02-16T04:39:49;4.93;;;2.50;;
3083;SDS011;1552;51.952;7.618;2024-02-16T04:42:16;3.83;;;2.17;;
3083;SDS011;1552;51.952;7.618;2024-02-16T04:44:44;4.50;;;2.27;;
3083;SDS011;1552;51.952;7.618;2024-02-16T04:47:10;4.23;;;2.17;;
3083;SDS011;1552;51.952;7.618;2024-02-16T04:49:37;3.33;;;2.00;;
3083;SDS011;1552;51.952;7.618;2024-02-16T04:52:03;7.43;;;2.50;;
3083;SDS011;1552;51.952;7.618;2024-02-16T04:54:29;3.23;;;2.23;;
3083;SDS011;1552;51.952;7.618;2024-02-16T04:56:57;4.30;;;2.20;;
3083;SDS011;1552;51.952;7.618;2024-02-16T04:59:23;3.03;;;2.10;;
3083;SDS011;1552;51.952;7.618;2024-02-16T05:01:50;4.27;;;1.93;;
3083;SDS011;1552;51.952;7.618;2024-02-16T05:04:16;3.80;;;2.27;;
3083;SDS011;1552;51.952;7.618;2024-02-16T05:06:42;2.13;;;1.90;;
3083;SDS011;1552;51.952;7.618;2024-02-16T05:09:10;2.67;;;1.90;;
3083;SDS011;1552;51.952;7.618;2024-02-16T05:11:36;4.30;;;2.00;;
3083;SDS011;1552;51.952;7.618;2024-02-16T05:14:04;4.77;;;2.13;;
3083;SDS011;1552;51.952;7.618;2024-02-16T05:16:31;5.07;;;2.17;;
3083;SDS011;1552;51.952;7.618;2024-02-16T05:18:57;2.40;;;1.60;;
3083;SDS011;1552;51.952;7.618;2024-02-16T05:21:24;5.53;;;2.27;;
3083;SDS011;1552;51.952;7.618;2024-02-16T05:23:50;3.13;;;2.17;;
3083;SDS011;1552;51.952;7.618;2024-02-16T05:26:16;4.67;;;1.70;;
3083;SDS011;1552;51.952;7.618;2024-02-16T05:28:43;2.97;;;1.80;;
3083;SDS011;1552;51.952;7.618;2024-02-16T05:31:14;2.10;;;1.53;;
3083;SDS011;1552;51.952;7.618;2024-02-16T05:33:42;3.73;;;2.07;;
3083;SDS011;1552;51.952;7.618;2024-02-16T05:36:08;2.83;;;1.50;;
3083;SDS011;1552;51.952;7.618;2024-02-16T05:38:34;5.83;;;1.60;;
3083;SDS011;1552;51.952;7.618;2024-02-16T05:41:05;2.80;;;1.67;;
3083;SDS011;1552;51.952;7.618;2024-02-16T05:43:32;2.13;;;1.50;;
3083;SDS011;1552;51.952;7.618;2024-02-16T05:45:58;4.03;;;1.90;;
3083;SDS011;1552;51.952;7.618;2024-02-16T05:48:26;3.13;;;1.93;;
3083;SDS011;1552;51.952;7.618;2024-02-16T05:50:56;4.30;;;2.10;;
3083;SDS011;1552;51.952;7.618;2024-02-16T05:53:23;4.97;;;1.70;;
3083;SDS011;1552;51.952;7.618;2024-02-16T05:55:51;3.93;;;1.83;;
3083;SDS011;1552;51.952;7.618;2024-02-16T05:58:17;4.20;;;2.00;;
3083;SDS011;1552;51.952;7.618;2024-02-16T06:00:44;2.00;;;1.50;;
3083;SDS011;1552;51.952;7.618;2024-02-16T06:03:12;4.23;;;1.80;;
3083;SDS011;1552;51.952;7.618;2024-02-16T06:05:40;2.93;;;1.57;;
3083;SDS011;1552;51.952;7.618;2024-02-16T06:08:09;3.40;;;1.90;;
3083;SDS011;1552;51.952;7.618;2024-02-16T06:10:35;4.43;;;1.60;;
3083;SDS011;1552;51.952;7.618;2024-02-16T06:13:02;4.80;;;1.87;;
3083;SDS011;1552;51.952;7.618;2024-02-16T06:15:28;3.43;;;1.90;;
3083;SDS011;1552;51.952;7.618;2024-02-16T06:17:55;3.87;;;2.10;;
3083;SDS011;1552;51.952;7.618;2024-02-16T06:20:21;4.57;;;2.10;;
3083;SDS011;1552;51.952;7.618;2024-02-16T06:22:49;3.23;;;2.00;;
3083;SDS011;1552;51.952;7.618;2024-02-16T06:25:15;3.37;;;2.27;;
3083;SDS011;1552;51.952;7.618;2024-02-16T06:27:42;3.17;;;1.80;;
3083;SDS011;1552;51.952;7.618;2024-02-16T06:30:09;5.67;;;2.30;;
3083;SDS011;1552;51.952;7.618;2024-02-16T06:32:38;2.90;;;1.87;;
3083;SDS011;1552;51.952;7.618;2024-02-16T06:35:05;3.87;;;2.07;;
3083;SDS011;1552;51.952;7.618;2024-02-16T06:37:32;3.83;;;1.90;;
3083;SDS011;1552;51.952;7.618;2024-02-16T06:40:00;3.00;;;2.10;;
3083;SDS011;1552;51.952;7.618;2024-02-16T06:42:25;2.30;;;1.67;;
3083;SDS011;1552;51.952;7.618;2024-02-16T06:44:51;6.50;;;2.60;;
3083;SDS011;1552;51.952;7.618;2024-02-16T06:47:18;7.37;;;1.87;;
3083;SDS011;1552;51.952;7.618;2024-02-16T06:49:45;3.00;;;1.93;;
3083;SDS011;1552;51.952;7.618;2024-02-16T06:52:12;4.53;;;1.97;;
3083;SDS011;1552;51.952;7.618;2024-02-16T06:54:38;4.87;;;2.20;;
3083;SDS011;1552;51.952;7.618;2024-02-16T06:57:06;5.17;;;2.30;;
3083;SDS011;1552;51.952;7.618;2024-02-16T06:59:31;3.60;;;2.23;;
3083;SDS011;1552;51.952;7.618;2024-02-16T07:01:57;4.73;;;2.40;;
3083;SDS011;1552;51.952;7.618;2024-02-16T07:04:23;4.93;;;2.57;;
3083;SDS011;1552;51.952;7.618;2024-02-16T07:06:50;5.00;;;2.63;;
3083;SDS011;1552;51.952;7.618;2024-02-16T07:09:16;8.53;;;2.47;;
3083;SDS011;1552;51.952;7.618;2024-02-16T07:11:42;4.33;;;2.50;;
3083;SDS011;1552;51.952;7.618;2024-02-16T07:14:12;4.20;;;2.17;;
3083;SDS011;1552;51.952;7.618;2024-02-16T07:16:38;8.90;;;2.70;;
3083;SDS011;1552;51.952;7.618;2024-02-16T07:19:05;3.27;;;2.37;;
3083;SDS011;1552;51.952;7.618;2024-02-16T07:21:31;6.73;;;2.47;;
3083;SDS011;1552;51.952;7.618;2024-02-16T07:23:57;3.63;;;2.47;;
3083;SDS011;1552;51.952;7.618;2024-02-16T07:26:24;4.53;;;2.20;;
3083;SDS011;1552;51.952;7.618;2024-02-16T07:28:50;7.63;;;2.40;;
3083;SDS011;1552;51.952;7.618;2024-02-16T07:31:18;2.83;;;1.60;;
3083;SDS011;1552;51.952;7.618;2024-02-16T07:33:44;3.67;;;1.93;;
3083;SDS011;1552;51.952;7.618;2024-02-16T07:36:10;3.80;;;1.80;;
3083;SDS011;1552;51.952;7.618;2024-02-16T07:38:38;2.10;;;1.70;;
3083;SDS011;1552;51.952;7.618;2024-02-16T07:41:05;2.90;;;1.70;;
3083;SDS011;1552;51.952;7.618;2024-02-16T07:43:32;4.30;;;1.67;;
3083;SDS011;1552;51.952;7.618;2024-02-16T07:45:58;4.77;;;1.77;;
3083;SDS011;1552;51.952;7.618;2024-02-16T07:48:26;3.13;;;1.70;;
3083;SDS011;1552;51.952;7.618;2024-02-16T07:50:53;7.97;;;1.70;;
3083;SDS011;1552;51.952;7.618;2024-02-16T07:53:19;7.27;;;2.33;;
3083;SDS011;1552;51.952;7.618;2024-02-16T07:55:45;3.70;;;1.87;;
3083;SDS011;1552;51.952;7.618;2024-02-16T07:58:12;6.50;;;2.00;;
3083;SDS011;1552;51.952;7.618;2024-02-16T08:00:38;2.67;;;1.70;;
3083;SDS011;1552;51.952;7.618;2024-02-16T08:03:04;4.37;;;1.67;;
3083;SDS011;1552;51.952;7.618;2024-02-16T08:05:32;4.70;;;2.03;;
3083;SDS011;1552;51.952;7.618;2024-02-16T08:07:58;9.53;;;1.90;;
3083;SDS011;1552;51.952;7.618;2024-02-16T08:10:24;2.60;;;1.97;;
3083;SDS011;1552;51.952;7.618;2024-02-16T08:12:51;4.13;;;1.77;;
3083;SDS011;1552;51.952;7.618;2024-02-16T08:15:17;4.17;;;2.10;;
3083;SDS011;1552;51.952;7.618;2024-02-16T08:17:48;6.93;;;1.80;;
3083;SDS011;1552;51.952;7.618;2024-02-16T08:20:14;5.23;;;2.17;;
3083;SDS011;1552;51.952;7.618;2024-02-16T08:22:42;7.77;;;1.80;;
3083;SDS011;1552;51.952;7.618;2024-02-16T08:25:08;3.17;;;2.00;;
3083;SDS011;1552;51.952;7.618;2024-02-16T08:27:34;4.80;;;2.03;;
3083;SDS011;1552;51.952;7.618;2024-02-16T08:30:02;4.27;;;1.93;;
3083;SDS011;1552;51.952;7.618;2024-02-16T08:32:29;3.57;;;1.97;;
3083;SDS011;1552;51.952;7.618;2024-02-16T08:34:55;7.53;;;2.00;;
3083;SDS011;1552;51.952;7.618;2024-02-16T08:37:23;3.97;;;1.80;;
3083;SDS011;1552;51.952;7.618;2024-02-16T08:39:51;7.47;;;2.13;;
3083;SDS011;1552;51.952;7.618;2024-02-16T08:42:17;4.80;;;1.80;;
3083;SDS011;1552;51.952;7.618;2024-02-16T08:44:44;4.47;;;2.60;;
3083;SDS011;1552;51.952;7.618;2024-02-16T08:47:10;8.17;;;2.13;;
3083;SDS011;1552;51.952;7.618;2024-02-16T08:49:36;2.40;;;1.67;;
3083;SDS011;1552;51.952;7.618;2024-02-16T08:52:04;4.43;;;1.80;;
3083;SDS011;1552;51.952;7.618;2024-02-16T08:54:31;4.20;;;2.00;;
3083;SDS011;1552;51.952;7.618;2024-02-16T08:56:59;5.23;;;1.97;;
3083;SDS011;1552;51.952;7.618;2024-02-16T08:59:25;3.90;;;1.90;;
3083;SDS011;1552;51.952;7.618;2024-02-16T09:01:52;2.38;;;1.90;;
3083;SDS011;1552;51.952;7.618;2024-02-16T09:04:19;3.47;;;1.87;;
3083;SDS011;1552;51.952;7.618;2024-02-16T09:06:45;7.80;;;2.00;;
3083;SDS011;1552;51.952;7.618;2024-02-16T09:09:11;9.68;;;2.42;;
3083;SDS011;1552;51.952;7.618;2024-02-16T09:11:37;4.97;;;2.08;;
3083;SDS011;1552;51.952;7.618;2024-02-16T09:14:05;3.50;;;2.23;;
3083;SDS011;1552;51.952;7.618;2024-02-16T09:16:31;4.00;;;2.05;;
3083;SDS011;1552;51.952;7.618;2024-02-16T09:18:58;3.17;;;1.93;;
3083;SDS011;1552;51.952;7.618;2024-02-16T09:21:24;8.13;;;2.10;;
3083;SDS011;1552;51.952;7.618;2024-02-16T09:23:53;4.13;;;1.93;;
3083;SDS011;1552;51.952;7.618;2024-02-16T09:26:23;4.65;;;2.72;;
3083;SDS011;1552;51.952;7.618;2024-02-16T09:28:50;4.50;;;2.17;;
3083;SDS011;1552;51.952;7.618;2024-02-16T09:31:17;3.13;;;1.73;;
3083;SDS011;1552;51.952;7.618;2024-02-16T09:33:44;12.27;;;2.63;;
3083;SDS011;1552;51.952;7.618;2024-02-16T09:36:10;4.65;;;2.47;;
3083;SDS011;1552;51.952;7.618;2024-02-16T09:38:36;6.70;;;2.20;;
3083;SDS011;1552;51.952;7.618;2024-02-16T09:41:03;7.20;;;2.33;;
3083;SDS011;1552;51.952;7.618;2024-02-16T09:43:29;6.47;;;1.77;;
3083;SDS011;1552;51.952;7.618;2024-02-16T09:45:56;3.80;;;1.90;;
3083;SDS011;1552;51.952;7.618;2024-02-16T09:48:26;2.25;;;1.65;;
3083;SDS011;1552;51.952;7.618;2024-02-16T09:50:53;5.10;;;1.85;;
3083;SDS011;1552;51.952;7.618;2024-02-16T09:53:19;4.93;;;2.50;;
3083;SDS011;1552;51.952;7.618;2024-02-16T09:55:47;4.05;;;1.77;;
3083;SDS011;1552;51.952;7.618;2024-02-16T09:58:14;9.10;;;2.40;;
3083;SDS011;1552;51.952;7.618;2024-02-16T10:00:47;4.97;;;2.00;;
3083;SDS011;1552;51.952;7.618;2024-02-16T10:03:21;4.07;;;1.83;;
3083;SDS011;1552;51.952;7.618;2024-02-16T10:05:49;5.15;;;2.25;;
3083;SDS011;1552;51.952;7.618;2024-02-16T10:08:15;4.63;;;1.98;;
3083;SDS011;1552;51.952;7.618;2024-02-16T10:10:42;4.63;;;2.10;;
3083;SDS011;1552;51.952;7.618;2024-02-16T10:13:08;7.35;;;2.20;;
3083;SDS011;1552;51.952;7.618;2024-02-16T10:15:36;5.07;;;2.08;;
3083;SDS011;1552;51.952;7.618;2024-02-16T10:18:03;3.33;;;2.25;;
3083;SDS011;1552;51.952;7.618;2024-02-16T10:20:29;3.55;;;1.95;;
3083;SDS011;1552;51.952;7.618;2024-02-16T10:23:04;5.32;;;2.42;;
3083;SDS011;1552;51.952;7.618;2024-02-16T10:25:31;4.95;;;2.22;;
3083;SDS011;1552;51.952;7.618;2024-02-16T10:27:57;2.42;;;1.83;;
3083;SDS011;1552;51.952;7.618;2024-02-16T10:30:25;3.53;;;2.10;;
3083;SDS011;1552;51.952;7.618;2024-02-16T10:32:53;5.40;;;2.10;;
3083;SDS011;1552;51.952;7.618;2024-02-16T10:35:20;11.43;;;2.50;;
3083;SDS011;1552;51.952;7.618;2024-02-16T10:37:47;2.83;;;1.80;;
3083;SDS011;1552;51.952;7.618;2024-02-16T10:40:15;3.72;;;2.00;;
3083;SDS011;1552;51.952;7.618;2024-02-16T10:42:43;4.65;;;2.35;;
3083;SDS011;1552;51.952;7.618;2024-02-16T10:45:11;6.10;;;2.30;;
3083;SDS011;1552;51.952;7.618;2024-02-16T10:47:38;5.22;;;2.60;;
3083;SDS011;1552;51.952;7.618;2024-02-16T10:50:05;4.45;;;2.13;;
3083;SDS011;1552;51.952;7.618;2024-02-16T10:52:32;5.18;;;2.25;;
3083;SDS011;1552;51.952;7.618;2024-02-16T10:54:58;6.10;;;2.53;;
3083;SDS011;1552;51.952;7.618;2024-02-16T10:57:26;5.93;;;2.28;;
3083;SDS011;1552;51.952;7.618;2024-02-16T10:59:54;6.75;;;2.25;;
3083;SDS011;1552;51.952;7.618;2024-02-16T11:02:21;9.18;;;2.28;;
3083;SDS011;1552;51.952;7.618;2024-02-16T11:04:49;3.63;;;2.25;;
3083;SDS011;1552;51.952;7.618;2024-02-16T11:07:18;2.88;;;1.90;;
3083;SDS011;1552;51.952;7.618;2024-02-16T11:09:45;5.20;;;1.90;;
3083;SDS011;1552;51.952;7.618;2024-02-16T11:12:12;4.38;;;2.30;;
3083;SDS011;1552;51.952;7.618;2024-02-16T11:14:40;5.50;;;2.38;;
3083;SDS011;1552;51.952;7.618;2024-02-16T11:17:08;8.02;;;2.33;;
3083;SDS011;1552;51.952;7.618;2024-02-16T11:19:35;5.22;;;2.60;;
3083;SDS011;1552;51.952;7.618;2024-02-16T11:22:02;10.00;;;2.83;;
3083;SDS011;1552;51.952;7.618;2024-02-16T11:24:32;8.32;;;2.97;;
3083;SDS011;1552;51.952;7.618;2024-02-16T11:27:00;7.57;;;2.40;;
3083;SDS011;1552;51.952;7.618;2024-02-16T11:29:28;4.47;;;2.47;;
3083;SDS011;1552;51.952;7.618;2024-02-16T11:31:57;6.72;;;2.70;;
3083;SDS011;1552;51.952;7.618;2024-02-16T11:34:24;7.40;;;2.78;;
3083;SDS011;1552;51.952;7.618;2024-02-16T11:36:51;5.10;;;2.97;;
3083;SDS011;1552;51.952;7.618;2024-02-16T11:39:18;7.22;;;2.60;;
3083;SDS011;1552;51.952;7.618;2024-02-16T11:41:45;3.83;;;2.67;;
3083;SDS011;1552;51.952;7.618;2024-02-16T11:44:12;5.22;;;2.95;;
3083;SDS011;1552;51.952;7.618;2024-02-16T11:46:38;3.78;;;2.40;;
3083;SDS011;1552;51.952;7.618;2024-02-16T11:49:07;10.77;;;2.70;;
3083;SDS011;1552;51.952;7.618;2024-02-16T11:51:33;5.43;;;2.80;;
3083;SDS011;1552;51.952;7.618;2024-02-16T11:54:00;6.88;;;2.92;;
3083;SDS011;1552;51.952;7.618;2024-02-16T11:56:26;8.48;;;3.03;;
3083;SDS011;1552;51.952;7.618;2024-02-16T11:58:52;5.85;;;3.40;;
3083;SDS011;1552;51.952;7.618;2024-02-16T12:01:19;6.40;;;3.38;;
3083;SDS011;1552;51.952;7.618;2024-02-16T12:03:46;8.82;;;3.60;;
3083;SDS011;1552;51.952;7.618;2024-02-16T12:06:20;5.30;;;3.20;;
3083;SDS011;1552;51.952;7.618;2024-02-16T12:08:47;6.75;;;3.45;;
3083;SDS011;1552;51.952;7.618;2024-02-16T12:11:13;5.20;;;2.80;;
3083;SDS011;1552;51.952;7.618;2024-02-16T12:13:40;9.00;;;3.22;;
3083;SDS011;1552;51.952;7.618;2024-02-16T12:16:06;10.25;;;3.47;;
3083;SDS011;1552;51.952;7.618;2024-02-16T12:18:32;7.57;;;3.50;;
3083;SDS011;1552;51.952;7.618;2024-02-16T12:20:59;7.63;;;3.55;;
3083;SDS011;1552;51.952;7.618;2024-02-16T12:23:27;7.40;;;3.50;;
3083;SDS011;1552;51.952;7.618;2024-02-16T12:25:55;13.32;;;4.18;;
3083;SDS011;1552;51.952;7.618;2024-02-16T12:28:23;6.60;;;3.38;;
3083;SDS011;1552;51.952;7.618;2024-02-16T12:30:50;8.60;;;3.05;;
3083;SDS011;1552;51.952;7.618;2024-02-16T12:33:16;8.07;;;3.67;;
3083;SDS011;1552;51.952;7.618;2024-02-16T12:35:42;10.98;;;3.70;;
3083;SDS011;1552;51.952;7.618;2024-02-16T12:38:09;10.02;;;4.93;;
3083;SDS011;1552;51.952;7.618;2024-02-16T12:40:36;6.80;;;3.67;;
3083;SDS011;1552;51.952;7.618;2024-02-16T12:43:03;8.32;;;3.70;;
3083;SDS011;1552;51.952;7.618;2024-02-16T12:45:29;5.97;;;3.38;;
3083;SDS011;1552;51.952;7.618;2024-02-16T12:47:56;6.97;;;3.22;;
3083;SDS011;1552;51.952;7.618;2024-02-16T12:50:23;8.77;;;3.30;;
3083;SDS011;1552;51.952;7.618;2024-02-16T12:52:49;10.38;;;3.28;;
3083;SDS011;1552;51.952;7.618;2024-02-16T12:55:15;7.13;;;3.65;;
3083;SDS011;1552;51.952;7.618;2024-02-16T12:57:43;5.38;;;3.58;;
3083;SDS011;1552;51.952;7.618;2024-02-16T13:00:10;6.03;;;3.42;;
3083;SDS011;1552;51.952;7.618;2024-02-16T13:02:37;9.32;;;4.20;;
3083;SDS011;1552;51.952;7.618;2024-02-16T13:05:03;11.80;;;4.22;;
3083;SDS011;1552;51.952;7.618;2024-02-16T13:07:30;8.43;;;3.35;;
3083;SDS011;1552;51.952;7.618;2024-02-16T13:09:56;5.63;;;3.45;;
3083;SDS011;1552;51.952;7.618;2024-02-16T13:12:23;10.63;;;4.15;;
3083;SDS011;1552;51.952;7.618;2024-02-16T13:14:50;8.65;;;4.10;;
3083;SDS011;1552;51.952;7.618;2024-02-16T13:17:17;4.50;;;3.63;;
3083;SDS011;1552;51.952;7.618;2024-02-16T13:19:43;9.20;;;4.00;;
3083;SDS011;1552;51.952;7.618;2024-02-16T13:22:09;7.75;;;3.78;;
3083;SDS011;1552;51.952;7.618;2024-02-16T13:24:36;4.97;;;3.00;;
3083;SDS011;1552;51.952;7.618;2024-02-16T13:27:02;7.90;;;3.38;;
3083;SDS011;1552;51.952;7.618;2024-02-16T13:29:29;12.02;;;4.60;;
3083;SDS011;1552;51.952;7.618;2024-02-16T13:31:56;6.47;;;3.50;;
3083;SDS011;1552;51.952;7.618;2024-02-16T13:34:23;8.20;;;3.78;;
3083;SDS011;1552;51.952;7.618;2024-02-16T13:36:50;9.80;;;3.33;;
3083;SDS011;1552;51.952;7.618;2024-02-16T13:39:16;6.20;;;4.00;;
3083;SDS011;1552;51.952;7.618;2024-02-16T13:41:44;6.50;;;3.75;;
3083;SDS011;1552;51.952;7.618;2024-02-16T13:44:12;8.38;;;4.07;;
3083;SDS011;1552;51.952;7.618;2024-02-16T13:46:38;8.82;;;4.38;;
3083;SDS011;1552;51.952;7.618;2024-02-16T13:49:06;9.32;;;4.88;;
3083;SDS011;1552;51.952;7.618;2024-02-16T13:51:32;12.07;;;4.57;;
3083;SDS011;1552;51.952;7.618;2024-02-16T13:53:58;7.40;;;4.27;;
3083;SDS011;1552;51.952;7.618;2024-02-16T13:56:25;10.07;;;4.63;;
3083;SDS011;1552;51.952;7.618;2024-02-16T13:58:51;11.90;;;4.90;;
3083;SDS011;1552;51.952;7.618;2024-02-16T14:01:17;9.10;;;4.13;;
3083;SDS011;1552;51.952;7.618;2024-02-16T14:03:43;9.27;;;4.60;;
3083;SDS011;1552;51.952;7.618;2024-02-16T14:06:11;8.43;;;4.77;;
3083;SDS011;1552;51.952;7.618;2024-02-16T14:08:37;14.23;;;5.20;;
3083;SDS011;1552;51.952;7.618;2024-02-16T14:11:04;10.07;;;5.10;;
3083;SDS011;1552;51.952;7.618;2024-02-16T14:13:30;10.53;;;5.80;;
3083;SDS011;1552;51.952;7.618;2024-02-16T14:15:56;13.47;;;5.33;;
3083;SDS011;1552;51.952;7.618;2024-02-16T14:18:22;7.70;;;5.20;;
3083;SDS011;1552;51.952;7.618;2024-02-16T14:20:49;9.70;;;5.50;;
3083;SDS011;1552;51.952;7.618;2024-02-16T14:23:16;8.97;;;5.03;;
3083;SDS011;1552;51.952;7.618;2024-02-16T14:25:43;12.97;;;6.07;;
3083;SDS011;1552;51.952;7.618;2024-02-16T14:28:10;11.77;;;6.33;;
3083;SDS011;1552;51.952;7.618;2024-02-16T14:30:36;9.13;;;5.33;;
3083;SDS011;1552;51.952;7.618;2024-02-16T14:33:03;12.00;;;6.47;;
3083;SDS011;1552;51.952;7.618;2024-02-16T14:35:29;11.23;;;6.40;;
3083;SDS011;1552;51.952;7.618;2024-02-16T14:37:56;9.40;;;6.13;;
3083;SDS011;1552;51.952;7.618;2024-02-16T14:40:24;10.53;;;7.10;;
3083;SDS011;1552;51.952;7.618;2024-02-16T14:42:50;13.13;;;6.67;;
3083;SDS011;1552;51.952;7.618;2024-02-16T14:45:16;14.17;;;6.97;;
3083;SDS011;1552;51.952;7.618;2024-02-16T14:47:46;9.87;;;5.70;;
3083;SDS011;1552;51.952;7.618;2024-02-16T14:50:12;11.77;;;6.43;;
3083;SDS011;1552;51.952;7.618;2024-02-16T14:52:38;10.47;;;6.47;;
3083;SDS011;1552;51.952;7.618;2024-02-16T14:55:05;14.97;;;7.73;;
3083;SDS011;1552;51.952;7.618;2024-02-16T14:57:36;10.00;;;6.30;;
3083;SDS011;1552;51.952;7.618;2024-02-16T15:00:02;13.70;;;6.57;;
3083;SDS011;1552;51.952;7.618;2024-02-16T15:02:29;14.87;;;7.10;;
3083;SDS011;1552;51.952;7.618;2024-02-16T15:04:55;10.67;;;7.33;;
3083;SDS011;1552;51.952;7.618;2024-02-16T15:07:21;12.67;;;6.93;;
3083;SDS011;1552;51.952;7.618;2024-02-16T15:09:48;11.43;;;6.73;;
3083;SDS011;1552;51.952;7.618;2024-02-16T15:12:14;9.70;;;6.33;;